Flight Track Log - Related Links

Times and Time Zones

All times are in EST time to prevent confusion due to time zone crossing. See the N589H flight status page for this flight to view local times or setup timezone preferences in your user account.

Time Position Orientation Groundspeed Altitude Reporting Facility
EST Latitude Longitude Course Direction KTS MPH feet Rate Location/Type
Wed 06:02:01 PM 27.6497 -80.3922 41° Northeast 358 412 800  Level Miami Center
Wed 06:03:01 PM 27.6717 -80.3483 61° Northeast 240 276 1,900 1,050 Climbing Miami Center
Wed 06:04:01 PM 27.6836 -80.2831 78° East 206 237 2,900 1,450 Climbing Miami Center
Wed 06:05:00 PM 28.0788 -79.9712 41° Northeast  Level FlightAware Approximate
Wed 06:05:01 PM 27.7242 -80.2442 40° Northeast 194 223 4,800  Level Miami Center
Wed 06:06:00 PM 28.1441 -79.8892 41° Northeast  Level FlightAware Approximate
Wed 06:06:01 PM 27.7797 -80.1897 41° Northeast 215 247 7,000  Level Miami Center
Wed 06:07:00 PM 28.2182 -79.8152 41° Northeast  Level FlightAware Approximate
Wed 06:07:01 PM 27.8289 -80.1417 41° Northeast 238 274 9,100  Level Miami Center
Wed 06:08:01 PM 27.8781 -80.0939 41° Northeast 233 268 11,100 1,800 Climbing Miami Center
Wed 06:09:01 PM 27.9292 -80.0436 41° Northeast 238 274 12,700 1,550 Climbing Miami Center
Wed 06:10:01 PM 27.9739 -80.0025 39° Northeast 358 412 14,200 1,800 Climbing Miami Center
Wed 06:11:01 PM 28.0522 -79.9600 26° Northeast 328 377 16,300 1,850 Climbing Miami Center
Wed 06:12:01 PM 28.1214 -79.9408 14° North 272 313 17,900 1,550 Climbing Miami Center
Wed 06:13:01 PM 28.1992 -79.9144 17° North 267 307 19,400 1,500 Climbing Miami Center
Wed 06:14:01 PM 28.2769 -79.8883 16° North 281 323 20,900 1,500 Climbing Miami Center
Wed 06:15:01 PM 28.3569 -79.8622 16° North 286 329 22,400 1,350 Climbing Miami Center
Wed 06:16:01 PM 28.4431 -79.8361 15° North 297 342 23,600 1,200 Climbing Miami Center
Wed 06:17:01 PM 28.5250 -79.8028 20° North 304 350 24,800 1,200 Climbing Miami Center
Wed 06:18:01 PM 28.6111 -79.7744 16° North 309 356 26,000 1,100 Climbing Miami Center
Wed 06:19:01 PM 28.6975 -79.7436 17° North 309 356 27,000 1,050 Climbing Miami Center
Wed 06:20:01 PM 28.7814 -79.7103 19° North 309 356 28,100 1,100 Climbing Miami Center
Wed 06:21:01 PM 28.8717 -79.6842 14° North 315 362 29,200 1,000 Climbing Miami Center
Wed 06:22:01 PM 28.9539 -79.6458 22° Northeast 315 362 30,100 850 Climbing Miami Center
Wed 06:23:01 PM 29.0442 -79.6150 17° North 321 369 30,900 900 Climbing Miami Center
Wed 06:24:01 PM 29.1325 -79.5839 17° North 327 376 31,900 850 Climbing Miami Center
Wed 06:25:01 PM 29.2228 -79.5481 19° North 327 376 32,600 700 Climbing Miami Center
Wed 06:26:01 PM 29.3150 -79.5194 15° North 327 376 33,300 800 Climbing Miami Center
Wed 06:27:01 PM 29.4056 -79.4833 19° North 337 388 34,200 850 Climbing Miami Center
Wed 06:28:01 PM 29.4917 -79.4428 22° Northeast 337 388 35,000 400 Climbing Miami Center
Wed 06:29:01 PM 29.5922 -79.4164 13° North 343 395 35,000  Level Miami Center
Wed 06:30:01 PM 29.6908 -79.3831 16° North 354 407 35,000  Level Miami Center
Wed 06:33:43 PM 30.0697 -79.2278 20° North 409 471 35,000  Level Jacksonville Center
Wed 06:34:43 PM 30.1814 -79.1900 16° North 409 471 35,000  Level Jacksonville Center
Wed 06:35:43 PM 30.2908 -79.1497 18° North 404 465 35,000  Level Jacksonville Center
Wed 06:36:43 PM 30.3961 -79.1094 18° North 398 458 35,000  Level Jacksonville Center
Wed 06:37:43 PM 30.5056 -79.0664 19° North 404 465 35,000  Level Jacksonville Center
Wed 06:38:43 PM 30.6211 -79.0256 17° North 404 465 35,000  Level Jacksonville Center
Wed 06:39:43 PM 30.7222 -78.9828 20° North 404 465 35,000 50 Level Jacksonville Center
Wed 06:40:43 PM 30.8317 -78.9419 18° North 399 459 35,100  Climbing Jacksonville Center
Wed 06:41:43 PM 30.9389 -78.9036 17° North 399 459 35,000 -50 Descending Jacksonville Center
Wed 06:42:43 PM 31.0583 -78.8550 19° North 403 464 35,000  Level Jacksonville Center
Wed 06:43:43 PM 31.1658 -78.8164 17° North 403 464 35,000  Level Jacksonville Center
Wed 06:44:43 PM 31.2731 -78.7753 18° North 395 455 35,000  Level Jacksonville Center
Wed 06:45:43 PM 31.3761 -78.7392 17° North 390 449 35,000  Level Jacksonville Center
Wed 06:46:43 PM 31.4833 -78.6928 20° North 400 460 35,000  Level Jacksonville Center
Wed 06:47:43 PM 31.5883 -78.6539 18° North 391 450 35,000  Level Jacksonville Center
Wed 06:48:43 PM 31.6894 -78.6153 18° North 391 450 35,000  Level Jacksonville Center
Wed 06:49:43 PM 31.7944 -78.5736 19° North 391 450 35,000  Level Jacksonville Center
Wed 06:50:43 PM 31.8994 -78.5297 20° North 397 457 35,000  Level Jacksonville Center
Wed 06:51:43 PM 32.0064 -78.4878 18° North 391 450 35,000  Level Jacksonville Center
Wed 06:52:43 PM 32.1117 -78.4486 17° North 391 450 35,000  Level Jacksonville Center
Wed 06:53:43 PM 32.2167 -78.4089 18° North 397 457 35,000  Level Jacksonville Center
Wed 06:54:43 PM 32.3236 -78.3644 19° North 397 457 35,000  Level Jacksonville Center
Wed 06:55:43 PM 32.4264 -78.3200 20° North 397 457 35,000  Level Jacksonville Center
Wed 06:56:43 PM 32.5333 -78.2800 18° North 397 457 35,000  Level Jacksonville Center
Wed 06:57:43 PM 32.6383 -78.2378 19° North 397 457 35,000  Level Jacksonville Center
Wed 06:58:43 PM 32.7453 -78.1953 18° North 397 457 35,000  Level Jacksonville Center
Wed 06:59:43 PM 32.8522 -78.1550 18° North 397 457 35,000  Level Jacksonville Center
Wed 07:01:36 PM 33.0383 -78.0781 19° North 413 475 35,000  Level Washington Center
Wed 07:02:36 PM 33.1456 -78.0342 19° North 406 467 35,000  Level Washington Center
Wed 07:03:38 PM 33.2508 -77.9925 18° North 406 467 35,000  Level Washington Center
Wed 07:04:35 PM 33.3558 -77.9483 19° North 401 461 35,000  Level Washington Center
Wed 07:05:36 PM 33.4631 -77.9067 18° North 401 461 35,000  Level Washington Center
Wed 07:06:37 PM 33.5703 -77.8622 19° North 401 461 35,000  Level Washington Center
Wed 07:07:35 PM 33.6775 -77.8178 19° North 401 461 35,000  Level Washington Center
Wed 07:08:36 PM 33.7847 -77.7756 18° North 406 467 35,000  Level Washington Center
Wed 07:09:36 PM 33.8919 -77.7283 20° North 406 467 35,000  Level Washington Center
Wed 07:10:36 PM 34.0033 -77.6861 17° North 406 467 35,000  Level Washington Center
Wed 07:11:37 PM 34.1231 -77.6392 18° North 406 467 35,000  Level Washington Center
Wed 07:12:35 PM 34.2281 -77.5964 19° North 406 467 35,000  Level Washington Center
Wed 07:13:35 PM 34.3372 -77.5489 20° North 406 467 35,000  Level Washington Center
Wed 07:14:36 PM 34.4425 -77.5058 19° North 406 467 35,000  Level Washington Center
Wed 07:15:37 PM 34.5494 -77.4631 18° North 406 467 35,000  Level Washington Center
Wed 07:16:37 PM 34.6547 -77.4075 23° Northeast 406 467 35,000  Level Washington Center
Wed 07:17:37 PM 34.7597 -77.3467 25° Northeast 411 473 35,000  Level Washington Center
Wed 07:18:36 PM 34.8650 -77.2856 25° Northeast 416 479 35,000  Level Washington Center
Wed 07:19:36 PM 34.9703 -77.2294 24° Northeast 411 473 35,000  Level Washington Center
Wed 07:20:37 PM 35.0753 -77.1706 25° Northeast 411 473 35,000  Level Washington Center
Wed 07:21:37 PM 35.1700 -77.1167 25° Northeast 411 473 35,000  Level Washington Center
Wed 07:22:35 PM 35.2769 -77.0550 25° Northeast 411 473 35,000  Level Washington Center
Wed 07:23:35 PM 35.3819 -76.9958 25° Northeast 411 473 35,000  Level Washington Center
Wed 07:24:36 PM 35.4869 -76.9389 24° Northeast 411 473 35,000  Level Washington Center
Wed 07:25:37 PM 35.5900 -76.8794 25° Northeast 405 466 35,000  Level Washington Center
Wed 07:26:37 PM 35.6906 -76.8247 24° Northeast 399 459 35,000  Level Washington Center
Wed 07:27:37 PM 35.7914 -76.7622 27° Northeast 399 459 35,000  Level Washington Center
Wed 07:28:35 PM 35.8922 -76.7047 25° Northeast 399 459 35,000  Level Washington Center
Wed 07:29:36 PM 35.9950 -76.6472 24° Northeast 399 459 35,000  Level Washington Center
Wed 07:30:36 PM 36.0936 -76.5894 25° Northeast 399 459 35,000  Level Washington Center
Wed 07:31:37 PM 36.1919 -76.5314 25° Northeast 399 459 35,000  Level Washington Center
Wed 07:32:35 PM 36.2925 -76.4733 25° Northeast 399 459 35,000  Level Washington Center
Wed 07:33:36 PM 36.3931 -76.4150 25° Northeast 399 459 35,000  Level Washington Center
Wed 07:34:37 PM 36.4936 -76.3567 25° Northeast 399 459 35,000  Level Washington Center
Wed 07:35:37 PM 36.5942 -76.2981 25° Northeast 399 459 35,000  Level Washington Center
Wed 07:36:35 PM 36.6947 -76.2422 24° Northeast 399 459 35,000  Level Washington Center
Wed 07:37:36 PM 36.8033 -76.1731 27° Northeast 394 453 35,000  Level Washington Center
Wed 07:38:37 PM 36.9039 -76.1139 25° Northeast 394 453 35,000  Level Washington Center
Wed 07:39:35 PM 37.0083 -76.0550 24° Northeast 399 459 35,000  Level Washington Center
Wed 07:40:36 PM 37.1089 -75.9956 25° Northeast 399 459 35,000  Level Washington Center
Wed 07:41:37 PM 37.2111 -75.9336 26° Northeast 399 459 35,000  Level Washington Center
Wed 07:42:35 PM 37.3114 -75.8894 19° North 399 459 35,000  Level Washington Center
Wed 07:43:35 PM 37.4178 -75.8639 11° North 387 445 35,000  Level Washington Center
Wed 07:44:36 PM 37.5222 -75.8300 14° North 382 440 35,000  Level Washington Center
Wed 07:45:37 PM 37.6244 -75.7989 14° North 377 434 35,000  Level Washington Center
Wed 07:46:38 PM 37.7308 -75.7650 14° North 377 434 35,000  Level Washington Center
Wed 07:47:35 PM 37.8353 -75.7311 14° North 377 434 35,000  Level Washington Center
Wed 07:48:35 PM 37.9394 -75.6969 15° North 377 434 35,000  Level Washington Center
Wed 07:49:37 PM 38.0439 -75.6656 13° North 377 434 35,000  Level Washington Center
Wed 07:50:37 PM 38.1336 -75.6286 18° North 369 425 35,000  Level Washington Center
Wed 07:51:38 PM 38.2378 -75.5969 13° North 376 433 35,000  Level Washington Center
Wed 07:52:35 PM 38.3442 -75.5653 13° North 382 440 35,000  Level Washington Center
Wed 07:53:35 PM 38.4464 -75.5308 15° North 382 440 35,000  Level Washington Center
Wed 07:54:37 PM 38.5525 -75.4961 14° North 382 440 35,000  Level Washington Center
Wed 07:55:38 PM 38.6547 -75.4586 16° North 377 434 35,000  Level Washington Center
Wed 07:56:35 PM 38.7589 -75.4267 13° North 377 434 35,000  Level Washington Center
Wed 07:57:36 PM 38.8611 -75.3917 15° North 372 428 35,000  Level Washington Center
Wed 07:58:37 PM 38.9653 -75.3542 16° North 377 434 35,000  Level Washington Center
Wed 07:59:38 PM 39.0692 -75.3161 16° North 377 434 35,000  Level Washington Center
Wed 08:00:35 PM 39.1733 -75.2864 12° North 377 434 35,000  Level Washington Center
Wed 08:01:36 PM 39.2797 -75.2483 15° North 372 428 35,000  Level Washington Center
Wed 08:02:36 PM 39.3794 -75.2131 15° North 377 434 35,000  Level Washington Center
Wed 08:03:37 PM 39.4836 -75.1775 15° North 377 434 35,000  Level Washington Center
Wed 08:04:37 PM 39.5878 -75.1419 15° North 377 434 35,000  Level Washington Center
Wed 08:05:38 PM 39.7000 -75.1033 15° North 377 434 35,000  Level Washington Center
Wed 08:07:02 PM 39.8397 -75.0558 15° North 394 453 35,000  Level New York Center
Wed 08:08:02 PM 39.9411 -75.0189 16° North 382 440 35,000  Level New York Center
Wed 08:09:02 PM 40.0447 -74.9819 15° North 382 440 35,000  Level New York Center
Wed 08:10:02 PM 40.1458 -74.9472 15° North 382 440 35,000  Level New York Center
Wed 08:11:02 PM 40.2472 -74.9097 16° North 382 440 35,000  Level New York Center
Wed 08:12:03 PM 40.3500 -74.8889 North 382 440 35,000  Level New York Center
Wed 08:13:02 PM 40.4550 -74.8678 North 376 433 35,000  Level New York Center
Wed 08:14:02 PM 40.5581 -74.8439 10° North 376 433 35,000  Level New York Center
Wed 08:16:23 PM 40.8092 -74.7928 North 385 443 35,000  Level Boston Center
Wed 08:17:24 PM 40.9122 -74.7719 North 377 434 35,000  Level Boston Center
Wed 08:18:25 PM 41.0125 -74.7511 North 376 433 35,000  Level Boston Center
Wed 08:19:26 PM 41.1164 -74.7286 North 369 425 35,000  Level Boston Center
Wed 08:20:27 PM 41.2194 -74.7064 North 375 432 35,000  Level Boston Center
Wed 08:21:28 PM 41.3164 -74.6867 North 368 423 35,000  Level Boston Center
Wed 08:22:29 PM 41.4369 -74.6600 North 367 422 35,000  Level Boston Center
Wed 08:23:30 PM 41.5342 -74.6381 10° North 369 425 35,000  Level Boston Center
Wed 08:24:31 PM 41.6333 -74.6167 North 365 420 35,000  Level Boston Center
Wed 08:25:32 PM 41.7328 -74.5953 North 362 417 35,000  Level Boston Center
Wed 08:26:33 PM 41.8361 -74.5744 North 363 418 35,000  Level Boston Center
Wed 08:27:34 PM 41.9356 -74.5344 17° North 378 435 35,000  Level Boston Center
Wed 08:28:35 PM 42.0344 -74.4992 15° North 389 448 35,000  Level Boston Center
Wed 08:29:36 PM 42.1322 -74.4681 13° North 360 414 35,000  Level Boston Center
Wed 08:30:37 PM 42.2322 -74.4344 14° North 368 423 35,000  Level Boston Center
Wed 08:31:38 PM 42.3411 -74.3953 15° North 368 423 35,000  Level Boston Center
Wed 08:32:38 PM 42.4406 -74.3614 14° North 368 423 35,000  Level Boston Center
Wed 08:33:39 PM 42.5408 -74.3264 14° North 369 425 35,000  Level Boston Center
Wed 08:34:40 PM 42.6478 -74.2875 15° North 369 425 35,000  Level Boston Center
Wed 08:35:41 PM 42.7456 -74.2528 15° North 366 421 35,000  Level Boston Center
Wed 08:36:42 PM 42.8425 -74.2161 15° North 365 420 35,000  Level Boston Center
Wed 08:37:43 PM 42.9431 -74.1814 14° North 371 427 35,000  Level Boston Center
Wed 08:38:44 PM 43.0422 -74.1458 15° North 371 427 35,000  Level Boston Center
Wed 08:39:45 PM 43.1392 -74.1097 15° North 366 421 35,000  Level Boston Center
Wed 08:40:46 PM 43.2367 -74.0728 15° North 367 422 35,000  Level Boston Center
Wed 08:41:47 PM 43.3342 -74.0372 15° North 366 421 35,000  Level Boston Center
Wed 08:42:48 PM 43.4472 -73.9958 15° North 368 423 35,000 -443 Level Boston Center
Wed 08:43:49 PM 43.5411 -73.9214 30° Northeast 394 453 34,100 -984 Descending Boston Center
Wed 08:44:50 PM 43.6372 -73.8358 33° Northeast 411 473 33,000 -541 Descending Boston Center
Wed 08:45:51 PM 43.7325 -73.7536 32° Northeast 393 452 33,000  Level Boston Center
Wed 08:46:52 PM 43.8172 -73.6775 33° Northeast 386 444 33,000 -541 Level Boston Center
Wed 08:47:53 PM 43.9058 -73.5875 36° Northeast 393 452 31,900 -1,190 Descending Boston Center
Wed 08:48:53 PM 44.0031 -73.5675 North 362 417 30,600 -1,537 Descending Boston Center
Wed 08:49:54 PM 44.0964 -73.5811 354° North 339 390 28,800 -2,213 Descending Boston Center
Wed 08:50:55 PM 44.1883 -73.5828 359° North 335 386 26,100 -2,066 Descending Boston Center
Wed 08:51:56 PM 44.2775 -73.5833 360° North 327 376 24,600 -1,721 Descending Boston Center
Wed 08:52:57 PM 44.3658 -73.5817 North 320 368 22,600 -1,967 Descending Boston Center
Wed 08:53:58 PM 44.4739 -73.5786 North 322 371 20,600 -1,770 Descending Boston Center
Wed 08:54:59 PM 44.5597 -73.5767 North 313 360 19,000 -1,230 Descending Boston Center
Wed 08:56:00 PM 44.6431 -73.5758 360° North 299 344 18,100 -1,230 Descending Boston Center
Wed 08:57:01 PM 44.7236 -73.5736 North 290 334 16,500 -1,475 Descending Boston Center
Wed 08:58:02 PM 44.8014 -73.5725 North 281 323 15,100 -1,426 Descending Boston Center
Wed 08:59:03 PM 44.8761 -73.5714 North 270 311 13,600 -1,426 Descending Boston Center
Wed 09:00:04 PM 44.9503 -73.5700 North 266 306 12,200 -1,227 Descending Boston Center
Wed 09:01:15 PM 45.0333 -73.5500 10° North 260 299 10,900 -1,053 Descending Montreal Center
Wed 09:02:15 PM 45.1000 -73.5500 360° North 260 299 9,900 -1,050 Descending Montreal Center
Wed 09:03:15 PM 45.1833 -73.5667 352° North 250 288 8,800 -1,000 Descending Montreal Center
Wed 09:04:15 PM 45.2500 -73.5667 360° North 250 288 7,900 -1,350 Descending Montreal Center
Wed 09:05:15 PM 45.3167 -73.5833 350° North 240 276 6,100 -1,850 Descending Montreal Center
Wed 09:06:15 PM 45.3833 -73.5833 360° North 230 265 4,200 -1,050 Descending Montreal Center
Wed 09:07:15 PM 45.4333 -73.5500 25° Northeast 200 230 4,000 -100 Descending Montreal Center
Wed 09:08:15 PM 45.4833 -73.5500 360° North 200 230 4,000 -350 Level Montreal Center
Wed 09:09:15 PM 45.5333 -73.5833 335° Northwest 160 184 3,300 -1,200 Descending Montreal Center
Wed 09:10:15 PM 45.5167 -73.6167 234° Southwest 140 161 1,600 -1,150 Descending Montreal Center
Wed 09:11:15 PM 45.5000 -73.6667 245° Southwest 120 138 1,000 -700 Descending Montreal Center
Wed 09:12:15 PM 45.4667 -73.7000 215° Southwest 130 150 200 -800 Descending Montreal Center

Login

Don't have an account? Register now (free) for customized features, flight alerts, and more!